Time;durP1;ratioP1;P1;durP2;ratioP2;P2;SDS_P1;SDS_P2;PMS_P1;PMS_P2;Temp;Humidity;BMP_temperature;BMP_pressure;BME280_temperature;BME280_humidity;BME280_pressure;Samples;Min_cycle;Max_cycle;Signal;HPM_P1;HPM_P2
2021/11/22 00:20:15;;;;;;;1.55;1.25;;;;;;;;;;4296119;28;20075;-63
2021/11/22 00:22:43;;;;;;;1.40;1.30;;;;;;;;;;4218366;34;20133;-63
2021/11/22 00:25:10;;;;;;;1.85;1.17;;;;;;;;;;4206294;34;20096;-67
2021/11/22 00:27:36;;;;;;;1.60;1.30;;;;;;;;;;4204545;34;20110;-63
2021/11/22 00:30:04;;;;;;;2.05;1.30;;;;;;;;;;4203935;34;20106;-68
2021/11/22 00:32:30;;;;;;;1.55;1.30;;;;;;;;;;4191723;34;20105;-64
2021/11/22 00:34:56;;;;;;;1.20;1.10;;;;;;;;;;4191426;34;20113;-64
2021/11/22 00:37:25;;;;;;;1.58;1.10;;;;;;;;;;4204413;34;20220;-64
2021/11/22 00:39:51;;;;;;;1.85;1.50;;;;;;;;;;4204539;34;20470;-69
2021/11/22 00:42:17;;;;;;;1.45;1.35;;;;;;;;;;4204629;34;20201;-68
2021/11/22 00:44:42;;;;;;;1.40;1.30;;;;;;;;;;4180206;34;20090;-69
2021/11/22 00:47:08;;;;;;;1.40;1.30;;;;;;;;;;4203880;34;20205;-68
2021/11/22 00:49:35;;;;;;;1.85;1.50;;;;;;;;;;4204051;34;20124;-68
2021/11/22 00:52:01;;;;;;;2.35;1.65;;;;;;;;;;4204278;34;20113;-67
2021/11/22 00:54:27;;;;;;;2.45;1.50;;;;;;;;;;4191165;34;20145;-63
2021/11/22 00:56:53;;;;;;;1.35;1.20;;;;;;;;;;4204235;34;20090;-64
2021/11/22 00:59:19;;;;;;;1.30;1.20;;;;;;;;;;4204314;34;20140;-64
2021/11/22 01:01:50;;;;;;;1.10;1.08;;;;;;;;;;4204133;34;20597;-64
2021/11/22 01:04:19;;;;;;;1.58;1.25;;;;;;;;;;4204067;34;20121;-64
2021/11/22 01:06:45;;;;;;;1.95;1.37;;;;;;;;;;4204227;34;20109;-64
2021/11/22 01:09:11;;;;;;;3.62;1.42;;;;;;;;;;4191238;34;20101;-64
2021/11/22 01:11:37;;;;;;;1.83;1.55;;;;;;;;;;4204032;34;20188;-64
2021/11/22 01:14:03;;;;;;;4.53;1.37;;;;;;;;;;4203906;34;20198;-64
2021/11/22 01:16:30;;;;;;;1.48;1.37;;;;;;;;;;4189474;34;20125;-64
2021/11/22 01:18:57;;;;;;;2.30;1.50;;;;;;;;;;4203526;34;20117;-68
2021/11/22 01:21:23;;;;;;;3.00;1.58;;;;;;;;;;4203848;34;20117;-68
2021/11/22 01:23:49;;;;;;;2.17;1.40;;;;;;;;;;4204018;34;20130;-68
2021/11/22 01:26:15;;;;;;;3.42;1.30;;;;;;;;;;4203890;34;20494;-68
2021/11/22 01:28:41;;;;;;;1.40;1.30;;;;;;;;;;4203960;34;20119;-68
2021/11/22 01:31:07;;;;;;;1.83;1.40;;;;;;;;;;4203765;34;20117;-68
2021/11/22 01:33:33;;;;;;;1.52;1.33;;;;;;;;;;4203722;34;20110;-68
2021/11/22 01:35:59;;;;;;;2.30;2.08;;;;;;;;;;4203932;34;20129;-67
2021/11/22 01:38:25;;;;;;;1.40;1.30;;;;;;;;;;4203918;34;20214;-67
2021/11/22 01:40:51;;;;;;;2.60;1.40;;;;;;;;;;4203650;34;20121;-68
2021/11/22 01:43:17;;;;;;;1.40;1.25;;;;;;;;;;4205552;34;20098;-69
2021/11/22 01:45:48;;;;;;;2.12;1.40;;;;;;;;;;4205818;34;20193;-69
2021/11/22 01:48:15;;;;;;;3.12;1.60;;;;;;;;;;4205747;34;20121;-69
2021/11/22 01:50:41;;;;;;;2.05;1.60;;;;;;;;;;4181576;34;20201;-69
2021/11/22 01:53:07;;;;;;;1.50;1.40;;;;;;;;;;4192768;34;20206;-68
2021/11/22 01:55:33;;;;;;;2.53;1.75;;;;;;;;;;4205688;34;20516;-69
2021/11/22 01:57:59;;;;;;;1.98;1.50;;;;;;;;;;4205941;34;20144;-68
2021/11/22 02:00:29;;;;;;;1.87;1.50;;;;;;;;;;4205676;34;20144;-67
2021/11/22 02:02:55;;;;;;;1.60;1.50;;;;;;;;;;4205694;34;20217;-66
2021/11/22 02:05:21;;;;;;;2.42;1.70;;;;;;;;;;4205788;34;20108;-66
2021/11/22 02:07:47;;;;;;;1.80;1.70;;;;;;;;;;4205667;34;20213;-67
2021/11/22 02:10:14;;;;;;;1.70;1.60;;;;;;;;;;4205529;34;20129;-67
2021/11/22 02:12:40;;;;;;;2.85;1.73;;;;;;;;;;4205941;34;20534;-66
2021/11/22 02:15:07;;;;;;;3.22;1.65;;;;;;;;;;4205582;34;20538;-68
2021/11/22 02:17:36;;;;;;;2.83;1.87;;;;;;;;;;4192943;34;20089;-66
2021/11/22 02:20:03;;;;;;;2.42;2.17;;;;;;;;;;4192960;34;20115;-67
2021/11/22 02:22:30;;;;;;;4.57;1.83;;;;;;;;;;4192763;34;20125;-72
2021/11/22 02:24:57;;;;;;;2.25;2.00;;;;;;;;;;4205496;34;20173;-66
2021/11/22 02:27:23;;;;;;;2.30;1.80;;;;;;;;;;4205453;34;20136;-67
2021/11/22 02:29:49;;;;;;;2.30;1.70;;;;;;;;;;4205433;34;20125;-66
2021/11/22 02:32:15;;;;;;;3.00;1.55;;;;;;;;;;4205561;34;20102;-67
2021/11/22 02:34:41;;;;;;;1.80;1.58;;;;;;;;;;4205403;34;20121;-67
2021/11/22 02:37:07;;;;;;;2.15;1.75;;;;;;;;;;4192397;34;20113;-67
2021/11/22 02:39:33;;;;;;;1.90;1.60;;;;;;;;;;4205308;34;20224;-67
2021/11/22 02:41:59;;;;;;;3.08;1.90;;;;;;;;;;4205378;34;20099;-67
2021/11/22 02:44:25;;;;;;;3.37;1.98;;;;;;;;;;4205415;34;20132;-66
2021/11/22 02:46:50;;;;;;;2.70;1.80;;;;;;;;;;4205446;34;20177;-66
2021/11/22 02:49:16;;;;;;;2.40;2.20;;;;;;;;;;4192675;34;20185;-67
2021/11/22 02:51:42;;;;;;;2.40;2.10;;;;;;;;;;4190057;34;20114;-67
2021/11/22 02:54:08;;;;;;;3.35;2.72;;;;;;;;;;4202653;34;20113;-67
2021/11/22 02:56:35;;;;;;;5.97;3.15;;;;;;;;;;4203178;34;20118;-67
2021/11/22 02:59:03;;;;;;;3.70;2.03;;;;;;;;;;4203391;34;20221;-67
2021/11/22 03:01:29;;;;;;;3.83;2.00;;;;;;;;;;4203304;34;20461;-68
2021/11/22 03:03:55;;;;;;;2.08;1.87;;;;;;;;;;4202974;34;20519;-67
2021/11/22 03:06:21;;;;;;;2.50;1.95;;;;;;;;;;4190359;34;20113;-67
2021/11/22 03:08:47;;;;;;;2.15;1.90;;;;;;;;;;4178643;34;20133;-67
2021/11/22 03:11:14;;;;;;;2.30;2.00;;;;;;;;;;4203193;34;20114;-67
2021/11/22 03:13:41;;;;;;;1.73;1.62;;;;;;;;;;4203098;34;20117;-67
2021/11/22 03:16:07;;;;;;;2.42;1.80;;;;;;;;;;4203109;34;20101;-68
2021/11/22 03:18:33;;;;;;;2.97;1.83;;;;;;;;;;4202965;34;20220;-67
2021/11/22 03:20:59;;;;;;;2.37;1.90;;;;;;;;;;4203227;34;20535;-68
2021/11/22 03:23:25;;;;;;;3.22;2.50;;;;;;;;;;4204230;34;20126;-68
2021/11/22 03:25:51;;;;;;;2.58;2.00;;;;;;;;;;4205098;34;20122;-69
2021/11/22 03:28:17;;;;;;;1.98;1.73;;;;;;;;;;4192090;34;20467;-74
2021/11/22 03:30:44;;;;;;;4.97;2.00;;;;;;;;;;4180778;34;20125;-69
2021/11/22 03:33:10;;;;;;;2.55;2.05;;;;;;;;;;4204879;34;20518;-69
2021/11/22 03:35:36;;;;;;;3.58;3.20;;;;;;;;;;4205314;34;20100;-69
2021/11/22 03:38:03;;;;;;;3.40;2.05;;;;;;;;;;4204893;34;20102;-68
2021/11/22 03:40:29;;;;;;;2.92;2.42;;;;;;;;;;4204970;34;20109;-69
2021/11/22 03:45:40;;;;;;;2.67;2.20;;;;;;;;;;4191977;34;20115;-70
2021/11/22 03:48:06;;;;;;;2.90;2.08;;;;;;;;;;4204958;34;20117;-70
2021/11/22 03:50:33;;;;;;;2.20;2.00;;;;;;;;;;4204803;34;20129;-72
2021/11/22 03:52:58;;;;;;;2.72;2.10;;;;;;;;;;4192215;34;20105;-72
2021/11/22 03:55:25;;;;;;;3.37;2.20;;;;;;;;;;4204831;34;20438;-72
2021/11/22 03:57:52;;;;;;;3.00;2.10;;;;;;;;;;4191871;34;20537;-71
2021/11/22 04:00:17;;;;;;;2.47;2.08;;;;;;;;;;4204657;34;20175;-71
2021/11/22 04:02:43;;;;;;;2.37;2.05;;;;;;;;;;4204700;34;20521;-71
2021/11/22 04:05:09;;;;;;;2.40;1.85;;;;;;;;;;4203912;34;20279;-70
2021/11/22 04:07:35;;;;;;;2.50;1.95;;;;;;;;;;4204519;34;20125;-71
2021/11/22 04:10:02;;;;;;;2.42;1.90;;;;;;;;;;4204584;34;20498;-70
2021/11/22 04:12:28;;;;;;;3.00;1.90;;;;;;;;;;4180488;34;20229;-70
2021/11/22 04:14:54;;;;;;;2.95;2.00;;;;;;;;;;4204477;34;20128;-69
2021/11/22 04:17:20;;;;;;;3.22;1.87;;;;;;;;;;4204773;34;20110;-70
2021/11/22 04:19:45;;;;;;;3.25;1.83;;;;;;;;;;4204419;34;20126;-69
2021/11/22 04:22:11;;;;;;;2.80;2.17;;;;;;;;;;4191545;34;20101;-69
2021/11/22 04:24:38;;;;;;;2.62;2.00;;;;;;;;;;4204757;34;20209;-69
2021/11/22 04:27:05;;;;;;;3.22;1.85;;;;;;;;;;4191617;34;20502;-71
2021/11/22 04:29:31;;;;;;;2.12;1.92;;;;;;;;;;4180244;34;20551;-70
2021/11/22 04:31:57;;;;;;;1.90;1.80;;;;;;;;;;4204282;34;20200;-70
2021/11/22 04:34:22;;;;;;;3.40;2.00;;;;;;;;;;4204567;34;20159;-70
2021/11/22 04:36:49;;;;;;;2.30;2.10;;;;;;;;;;4204469;34;20121;-69
2021/11/22 04:39:15;;;;;;;2.80;2.53;;;;;;;;;;4204228;34;20098;-70
2021/11/22 04:41:42;;;;;;;3.70;1.90;;;;;;;;;;4204108;34;20153;-70
2021/11/22 04:44:08;;;;;;;2.70;2.05;;;;;;;;;;4204223;34;20208;-70
2021/11/22 04:46:34;;;;;;;2.90;1.90;;;;;;;;;;4204197;34;20149;-70
2021/11/22 04:49:00;;;;;;;5.32;2.10;;;;;;;;;;4203965;34;20133;-70
2021/11/22 04:51:25;;;;;;;1.90;1.80;;;;;;;;;;4204107;34;20553;-70
2021/11/22 04:53:51;;;;;;;4.93;1.90;;;;;;;;;;4204358;34;20113;-70
2021/11/22 04:56:17;;;;;;;2.12;1.92;;;;;;;;;;4204257;34;20144;-69
2021/11/22 04:58:43;;;;;;;2.15;1.95;;;;;;;;;;4204369;34;20129;-68
2021/11/22 05:01:09;;;;;;;3.55;2.28;;;;;;;;;;4204111;34;20513;-68
2021/11/22 05:03:35;;;;;;;2.20;2.00;;;;;;;;;;4203802;34;20129;-67
2021/11/22 05:06:01;;;;;;;2.20;2.00;;;;;;;;;;4203835;34;20133;-67
2021/11/22 05:08:26;;;;;;;4.32;2.30;;;;;;;;;;4203755;34;20436;-67
2021/11/22 05:10:52;;;;;;;2.47;2.20;;;;;;;;;;4190858;34;20438;-65
2021/11/22 05:13:21;;;;;;;4.90;2.53;;;;;;;;;;4190875;34;20208;-70
2021/11/22 05:15:48;;;;;;;3.78;2.20;;;;;;;;;;4203661;34;20495;-70
2021/11/22 05:18:14;;;;;;;2.75;2.10;;;;;;;;;;4205439;34;20526;-70
2021/11/22 05:20:41;;;;;;;3.00;2.12;;;;;;;;;;4205806;34;20585;-69
2021/11/22 05:23:07;;;;;;;2.60;2.10;;;;;;;;;;4205935;34;20111;-70
2021/11/22 05:25:33;;;;;;;2.80;2.50;;;;;;;;;;4193095;34;20102;-65
2021/11/22 05:27:59;;;;;;;5.18;2.62;;;;;;;;;;4193011;34;20090;-65
2021/11/22 05:30:25;;;;;;;3.78;2.40;;;;;;;;;;4192747;34;20215;-65
2021/11/22 05:32:52;;;;;;;2.72;2.40;;;;;;;;;;4181820;34;20128;-69
2021/11/22 05:35:18;;;;;;;4.30;2.50;;;;;;;;;;4205894;34;20157;-68
2021/11/22 05:37:44;;;;;;;4.37;2.50;;;;;;;;;;4192691;34;20460;-69
2021/11/22 05:40:11;;;;;;;4.55;3.00;;;;;;;;;;4205828;34;20120;-68
2021/11/22 05:42:36;;;;;;;3.40;2.97;;;;;;;;;;4205804;34;20099;-69
2021/11/22 05:45:04;;;;;;;4.18;3.00;;;;;;;;;;4205899;34;20185;-69
2021/11/22 05:47:30;;;;;;;3.15;2.60;;;;;;;;;;4205771;34;20133;-69
2021/11/22 05:50:03;;;;;;;2.90;2.45;;;;;;;;;;4205671;34;20139;-69
2021/11/22 05:52:29;;;;;;;4.85;3.20;;;;;;;;;;4193574;34;20431;-69
2021/11/22 05:54:56;;;;;;;3.67;2.90;;;;;;;;;;4205623;34;20122;-69
2021/11/22 05:57:22;;;;;;;3.25;2.95;;;;;;;;;;4192822;34;20120;-69
2021/11/22 05:59:48;;;;;;;4.62;2.92;;;;;;;;;;4193108;34;20196;-70
2021/11/22 06:02:14;;;;;;;3.30;2.90;;;;;;;;;;4192595;34;20597;-69
2021/11/22 06:04:40;;;;;;;3.15;2.70;;;;;;;;;;4205498;34;20230;-69
2021/11/22 06:07:06;;;;;;;3.95;2.50;;;;;;;;;;4205392;34;20163;-69
2021/11/22 06:09:32;;;;;;;2.55;2.30;;;;;;;;;;4192806;34;20105;-69
2021/11/22 06:11:58;;;;;;;3.47;2.20;;;;;;;;;;4205404;34;20451;-68
2021/11/22 06:14:23;;;;;;;7.62;2.80;;;;;;;;;;4192779;34;20519;-68
2021/11/22 06:16:49;;;;;;;2.42;2.17;;;;;;;;;;4205302;34;20122;-68
2021/11/22 06:19:15;;;;;;;4.10;2.55;;;;;;;;;;4180995;34;20183;-68
2021/11/22 06:21:41;;;;;;;3.05;2.30;;;;;;;;;;4205209;34;20521;-67
2021/11/22 06:24:07;;;;;;;2.92;2.58;;;;;;;;;;4205230;34;20517;-71
2021/11/22 06:26:33;;;;;;;3.22;2.67;;;;;;;;;;4205491;34;20097;-70
2021/11/22 06:28:59;;;;;;;3.33;2.62;;;;;;;;;;4204663;34;20251;-72
2021/11/22 06:31:25;;;;;;;2.72;2.53;;;;;;;;;;4205243;34;20506;-70
2021/11/22 06:33:52;;;;;;;3.55;2.40;;;;;;;;;;4205297;34;20666;-70
2021/11/22 06:36:17;;;;;;;2.45;2.25;;;;;;;;;;4205341;34;20510;-70
2021/11/22 06:38:43;;;;;;;3.37;2.40;;;;;;;;;;4205664;34;20110;-70
2021/11/22 06:41:09;;;;;;;2.60;2.30;;;;;;;;;;4205134;34;20149;-71
2021/11/22 06:43:35;;;;;;;3.53;2.37;;;;;;;;;;4205318;34;20185;-71
2021/11/22 06:46:01;;;;;;;3.50;2.17;;;;;;;;;;4192170;34;20098;-71
2021/11/22 06:48:26;;;;;;;4.00;2.28;;;;;;;;;;4205180;34;20510;-71
2021/11/22 06:50:52;;;;;;;2.12;1.92;;;;;;;;;;4205029;34;20122;-72
2021/11/22 06:53:22;;;;;;;3.25;2.47;;;;;;;;;;4180871;34;20110;-71
2021/11/22 06:55:51;;;;;;;2.12;1.92;;;;;;;;;;4205352;34;20503;-71
2021/11/22 06:58:17;;;;;;;2.28;2.10;;;;;;;;;;4205178;34;20101;-71
2021/11/22 07:00:44;;;;;;;4.90;2.70;;;;;;;;;;4192179;34;20101;-71
2021/11/22 07:03:09;;;;;;;3.08;2.10;;;;;;;;;;4204946;34;20442;-71
2021/11/22 07:05:35;;;;;;;4.90;2.83;;;;;;;;;;4192262;34;20102;-71
2021/11/22 07:08:04;;;;;;;2.40;2.17;;;;;;;;;;4204965;34;20547;-71
2021/11/22 07:10:30;;;;;;;3.55;2.20;;;;;;;;;;4205060;34;20113;-71
2021/11/22 07:12:56;;;;;;;3.22;2.50;;;;;;;;;;4204950;34;20095;-71
2021/11/22 07:15:22;;;;;;;2.85;2.40;;;;;;;;;;4205028;34;20102;-71
2021/11/22 07:17:51;;;;;;;3.03;2.60;;;;;;;;;;4204844;34;20187;-71
2021/11/22 07:20:18;;;;;;;2.78;2.28;;;;;;;;;;4192162;34;20093;-71
2021/11/22 07:22:44;;;;;;;3.45;2.42;;;;;;;;;;4191918;34;20323;-71
2021/11/22 07:25:10;;;;;;;3.03;2.50;;;;;;;;;;4204928;34;20122;-72
2021/11/22 07:27:36;;;;;;;3.35;2.75;;;;;;;;;;4205058;34;20097;-71
2021/11/22 07:30:03;;;;;;;3.50;2.50;;;;;;;;;;4191941;34;20128;-70
2021/11/22 07:32:29;;;;;;;3.92;2.70;;;;;;;;;;4192018;34;20281;-71
2021/11/22 07:34:56;;;;;;;4.20;2.58;;;;;;;;;;4205036;34;20240;-71
2021/11/22 07:37:22;;;;;;;4.78;2.50;;;;;;;;;;4204710;34;20125;-70
2021/11/22 07:39:48;;;;;;;3.12;2.70;;;;;;;;;;4191757;34;20097;-70
2021/11/22 07:42:13;;;;;;;3.08;2.78;;;;;;;;;;4204637;34;20213;-70
2021/11/22 07:44:39;;;;;;;3.08;2.40;;;;;;;;;;4191635;34;20118;-71
2021/11/22 07:47:05;;;;;;;2.55;1.80;;;;;;;;;;4192064;34;20125;-71
2021/11/22 07:49:32;;;;;;;4.07;2.40;;;;;;;;;;4180857;34;20137;-71
2021/11/22 07:51:58;;;;;;;4.43;2.12;;;;;;;;;;4204576;34;20109;-71
2021/11/22 07:54:24;;;;;;;2.55;2.12;;;;;;;;;;4191635;34;20541;-71
2021/11/22 07:56:50;;;;;;;2.70;2.00;;;;;;;;;;4204640;34;20125;-71
2021/11/22 07:59:16;;;;;;;2.58;2.12;;;;;;;;;;4204776;34;20113;-71
2021/11/22 08:01:42;;;;;;;2.90;2.17;;;;;;;;;;4204868;34;20130;-71
2021/11/22 08:04:12;;;;;;;2.53;2.12;;;;;;;;;;4180145;34;20439;-71
2021/11/22 08:06:45;;;;;;;2.10;1.90;;;;;;;;;;4204842;34;20189;-71
2021/11/22 08:09:16;;;;;;;2.83;2.10;;;;;;;;;;4204492;34;20204;-72
2021/11/22 08:12:02;;;;;;;3.70;2.20;;;;;;;;;;4204797;34;20450;-71
2021/11/22 08:14:29;;;;;;;3.15;2.25;;;;;;;;;;4204449;34;20129;-71
2021/11/22 08:16:55;;;;;;;2.85;2.03;;;;;;;;;;4204504;34;20098;-72
2021/11/22 08:19:21;;;;;;;2.20;2.00;;;;;;;;;;4204479;34;20090;-72
2021/11/22 08:21:47;;;;;;;3.15;2.30;;;;;;;;;;4204346;34;20105;-72
2021/11/22 08:24:12;;;;;;;3.17;2.10;;;;;;;;;;4204357;34;20133;-72
2021/11/22 08:26:38;;;;;;;3.00;2.22;;;;;;;;;;4204649;34;20596;-72
2021/11/22 08:29:04;;;;;;;3.78;2.03;;;;;;;;;;4204376;34;20121;-71
2021/11/22 08:31:30;;;;;;;3.03;1.98;;;;;;;;;;4204784;34;20525;-73
2021/11/22 08:33:56;;;;;;;2.67;1.87;;;;;;;;;;4204773;34;20094;-71
2021/11/22 08:36:22;;;;;;;3.05;2.40;;;;;;;;;;4204510;34;20090;-70
2021/11/22 08:38:49;;;;;;;4.35;2.20;;;;;;;;;;4204310;34;20109;-70
2021/11/22 08:41:15;;;;;;;2.95;2.00;;;;;;;;;;4204165;34;20535;-71
2021/11/22 08:43:41;;;;;;;4.12;3.00;;;;;;;;;;4191176;34;20122;-73
2021/11/22 08:46:07;;;;;;;2.25;2.05;;;;;;;;;;4191270;34;20098;-70
2021/11/22 08:48:33;;;;;;;2.28;2.08;;;;;;;;;;4191073;34;20530;-71
2021/11/22 08:51:02;;;;;;;2.50;2.08;;;;;;;;;;4203587;34;20102;-71
2021/11/22 08:53:28;;;;;;;5.12;1.90;;;;;;;;;;4191697;34;20121;-73
2021/11/22 08:55:55;;;;;;;2.75;2.10;;;;;;;;;;4203924;34;20109;-72
2021/11/22 08:58:21;;;;;;;2.10;1.90;;;;;;;;;;4204141;34;20121;-72
2021/11/22 09:00:47;;;;;;;2.55;2.28;;;;;;;;;;4191115;34;20120;-71
2021/11/22 09:03:13;;;;;;;2.35;2.03;;;;;;;;;;4190823;34;20495;-72
2021/11/22 09:05:39;;;;;;;3.70;1.87;;;;;;;;;;4179688;34;20125;-72
2021/11/22 09:08:06;;;;;;;3.67;2.08;;;;;;;;;;4191034;34;20189;-71
2021/11/22 09:10:32;;;;;;;2.90;2.22;;;;;;;;;;4204164;34;20121;-72
2021/11/22 09:12:58;;;;;;;2.35;2.10;;;;;;;;;;4203413;34;20126;-68
2021/11/22 09:15:23;;;;;;;3.60;3.10;;;;;;;;;;4202071;34;20560;-66
2021/11/22 09:17:49;;;;;;;2.50;2.30;;;;;;;;;;4202428;34;20122;-67
2021/11/22 09:20:15;;;;;;;2.35;2.12;;;;;;;;;;4189453;34;20137;-68
2021/11/22 09:22:41;;;;;;;2.50;2.25;;;;;;;;;;4202600;34;20470;-69
2021/11/22 09:25:09;;;;;;;2.47;2.17;;;;;;;;;;4202385;34;20552;-68
2021/11/22 09:27:35;;;;;;;2.87;2.05;;;;;;;;;;4202305;34;20205;-68
2021/11/22 09:30:01;;;;;;;1.98;1.77;;;;;;;;;;4202278;34;20110;-68
2021/11/22 09:32:27;;;;;;;4.12;2.08;;;;;;;;;;4202342;34;20129;-68
2021/11/22 09:34:53;;;;;;;2.53;2.20;;;;;;;;;;4189486;34;20183;-68
2021/11/22 09:37:19;;;;;;;2.40;1.90;;;;;;;;;;4189564;34;20106;-68
2021/11/22 09:39:44;;;;;;;2.20;2.00;;;;;;;;;;4202395;34;20136;-71
2021/11/22 09:42:10;;;;;;;3.58;2.17;;;;;;;;;;4202204;34;20514;-69
2021/11/22 09:44:36;;;;;;;2.47;1.95;;;;;;;;;;4202287;34;20530;-69
2021/11/22 09:47:02;;;;;;;2.50;2.20;;;;;;;;;;4202004;34;20125;-69
2021/11/22 09:49:28;;;;;;;1.90;1.80;;;;;;;;;;4199565;34;20116;-69
2021/11/22 09:51:55;;;;;;;2.03;1.83;;;;;;;;;;4203298;34;20163;-68
2021/11/22 09:54:21;;;;;;;2.20;1.85;;;;;;;;;;4184338;34;20494;-69
2021/11/22 09:56:49;;;;;;;2.53;2.00;;;;;;;;;;4190465;34;20113;-68
2021/11/22 09:59:16;;;;;;;3.70;2.10;;;;;;;;;;4203208;34;20222;-70
2021/11/22 10:01:42;;;;;;;3.47;2.30;;;;;;;;;;4203415;34;20566;-68
2021/11/22 10:04:14;;;;;;;3.22;2.45;;;;;;;;;;4191788;34;20109;-69
2021/11/22 10:06:50;;;;;;;2.55;2.20;;;;;;;;;;4205345;34;20175;-69
2021/11/22 10:09:31;;;;;;;2.67;2.15;;;;;;;;;;4205368;34;20443;-70
2021/11/22 10:12:08;;;;;;;2.20;1.90;;;;;;;;;;4192755;34;20194;-69
2021/11/22 10:14:53;;;;;;;2.80;1.95;;;;;;;;;;4205010;34;20193;-69
2021/11/22 10:17:33;;;;;;;3.30;2.05;;;;;;;;;;4205520;34;20229;-71
2021/11/22 10:20:09;;;;;;;3.87;2.15;;;;;;;;;;4205141;34;20146;-70
2021/11/22 10:22:42;;;;;;;;;;;;;;;;;;4205670;34;20176;-69
2021/11/22 10:25:19;;;;;;;2.60;2.17;;;;;;;;;;4205118;34;19997;-70
2021/11/22 10:27:45;;;;;;;3.28;1.87;;;;;;;;;;4205351;34;20552;-70
2021/11/22 10:30:23;;;;;;;2.62;1.75;;;;;;;;;;4192319;34;20101;-70
2021/11/22 10:32:53;;;;;;;2.08;1.80;;;;;;;;;;4192570;34;20113;-71
2021/11/22 10:35:21;;;;;;;1.85;1.65;;;;;;;;;;4204982;34;20506;-71
2021/11/22 10:38:17;;;;;;;2.60;2.00;;;;;;;;;;4192522;34;20118;-71
2021/11/22 10:40:56;;;;;;;2.30;2.10;;;;;;;;;;4204541;34;20125;-71
2021/11/22 10:43:22;;;;;;;2.37;2.17;;;;;;;;;;4180676;34;20541;-71
2021/11/22 10:45:51;;;;;;;2.42;2.20;;;;;;;;;;4191974;34;20121;-72
2021/11/22 10:48:25;;;;;;;2.40;2.17;;;;;;;;;;4204919;34;20114;-72
2021/11/22 10:51:19;;;;;;;2.62;2.35;;;;;;;;;;4205436;34;20177;-72
2021/11/22 10:53:47;;;;;;;2.83;2.33;;;;;;;;;;4203757;34;20153;-71
2021/11/22 10:56:24;;;;;;;3.60;2.40;;;;;;;;;;4191792;34;20518;-70
2021/11/22 10:59:02;;;;;;;2.20;2.00;;;;;;;;;;4205085;34;20125;-72
2021/11/22 11:01:40;;;;;;;3.60;2.35;;;;;;;;;;4192451;34;20110;-71
2021/11/22 11:04:24;;;;;;;2.45;2.03;;;;;;;;;;4204526;34;20145;-70
2021/11/22 11:07:00;;;;;;;2.62;2.17;;;;;;;;;;4205030;34;20471;-70
2021/11/22 11:09:27;;;;;;;2.78;2.08;;;;;;;;;;4204695;34;20122;-71
2021/11/22 11:12:01;;;;;;;3.10;2.30;;;;;;;;;;4204993;34;20094;-70
2021/11/22 11:14:28;;;;;;;3.22;2.25;;;;;;;;;;4203998;34;20554;-70
2021/11/22 11:16:54;;;;;;;2.25;2.05;;;;;;;;;;4191862;34;20133;-71
2021/11/22 11:19:20;;;;;;;3.33;2.15;;;;;;;;;;4205143;34;20094;-70
2021/11/22 11:21:49;;;;;;;3.58;2.37;;;;;;;;;;4191591;34;20136;-70
2021/11/22 11:24:16;;;;;;;2.45;2.25;;;;;;;;;;4204514;34;20125;-70
2021/11/22 11:26:43;;;;;;;2.95;2.50;;;;;;;;;;4192170;34;20236;-70
2021/11/22 11:29:09;;;;;;;3.05;2.47;;;;;;;;;;4204476;34;20751;-69
2021/11/22 11:31:35;;;;;;;5.75;2.97;;;;;;;;;;4192003;34;20106;-70
2021/11/22 11:34:08;;;;;;;3.78;2.33;;;;;;;;;;4191676;34;20089;-70
2021/11/22 11:37:11;;;;;;;2.37;2.00;;;;;;;;;;4204615;34;20292;-72
2021/11/22 11:39:52;;;;;;;2.25;1.92;;;;;;;;;;4204529;34;20173;-73
2021/11/22 11:42:36;;;;;;;4.95;2.50;;;;;;;;;;4204611;34;20105;-72
2021/11/22 11:45:16;;;;;;;3.85;2.37;;;;;;;;;;4204248;34;20094;-72
2021/11/22 11:48:07;;;;;;;4.90;2.37;;;;;;;;;;4192267;34;20198;-72
2021/11/22 11:50:38;;;;;;;3.28;2.00;;;;;;;;;;4204673;34;20102;-71
2021/11/22 11:53:09;;;;;;;2.97;2.40;;;;;;;;;;4197949;34;20553;-72
2021/11/22 11:55:35;;;;;;;3.33;2.60;;;;;;;;;;4180362;34;20180;-72
2021/11/22 11:58:20;;;;;;;2.22;1.80;;;;;;;;;;4192517;34;20153;-72
2021/11/22 12:00:54;;;;;;;2.93;2.23;;;;;;;;;;4191943;34;20190;-69
2021/11/22 12:03:21;;;;;;;3.00;2.63;;;;;;;;;;4204639;34;20106;-73
2021/11/22 12:05:49;;;;;;;4.72;2.45;;;;;;;;;;4205015;34;20139;-69
2021/11/22 12:08:27;;;;;;;3.15;2.25;;;;;;;;;;4191749;34;20133;-71
2021/11/22 12:10:54;;;;;;;2.72;2.08;;;;;;;;;;4204962;34;20459;-72
2021/11/22 12:13:20;;;;;;;5.37;2.50;;;;;;;;;;4191772;34;20105;-72
2021/11/22 12:15:49;;;;;;;4.18;2.50;;;;;;;;;;4180243;34;20518;-73
2021/11/22 12:18:31;;;;;;;4.00;2.60;;;;;;;;;;4179630;34;20176;-74
2021/11/22 12:21:07;;;;;;;3.62;2.65;;;;;;;;;;4190539;34;20726;-71
2021/11/22 12:23:41;;;;;;;5.18;3.25;;;;;;;;;;4190401;34;20478;-72
2021/11/22 12:26:07;;;;;;;7.03;3.47;;;;;;;;;;4202319;34;20101;-73
2021/11/22 12:28:33;;;;;;;5.95;2.90;;;;;;;;;;4190522;34;20112;-71
2021/11/22 12:31:09;;;;;;;3.42;2.80;;;;;;;;;;4204465;34;20105;-70
2021/11/22 12:33:35;;;;;;;5.68;2.80;;;;;;;;;;4204323;34;20130;-74
2021/11/22 12:36:11;;;;;;;5.72;3.53;;;;;;;;;;4204350;34;20210;-71
2021/11/22 12:38:42;;;;;;;7.12;3.35;;;;;;;;;;4204314;34;20125;-73
2021/11/22 12:41:10;;;;;;;6.53;3.72;;;;;;;;;;4204260;34;20145;-71
2021/11/22 12:43:51;;;;;;;7.97;4.62;;;;;;;;;;4204258;34;20128;-70
2021/11/22 12:46:23;;;;;;;8.18;4.03;;;;;;;;;;4192231;34;20090;-68
2021/11/22 12:48:55;;;;;;;8.90;4.80;;;;;;;;;;4179969;34;20550;-72
2021/11/22 12:51:23;;;;;;;6.37;4.07;;;;;;;;;;4191149;34;20106;-76
2021/11/22 12:54:04;;;;;;;9.93;4.45;;;;;;;;;;4191697;34;20118;-71
2021/11/22 12:56:36;;;;;;;9.38;3.75;;;;;;;;;;4200816;34;20426;-73
2021/11/22 12:59:15;;;;;;;8.30;3.50;;;;;;;;;;4204216;34;20102;-72
2021/11/22 13:01:49;;;;;;;6.53;3.30;;;;;;;;;;4203891;34;20534;-73
2021/11/22 13:04:48;;;;;;;7.18;2.67;;;;;;;;;;4190835;34;20121;-73
2021/11/22 13:07:36;;;;;;;5.90;2.00;;;;;;;;;;4179628;34;20098;-72
2021/11/22 13:10:06;;;;;;;2.72;2.00;;;;;;;;;;4203831;34;20106;-73
2021/11/22 13:12:43;;;;;;;1.70;1.60;;;;;;;;;;4190849;34;20101;-73
2021/11/22 13:15:15;;;;;;;1.92;1.52;;;;;;;;;;4203708;34;20129;-73
2021/11/22 13:17:41;;;;;;;1.40;1.30;;;;;;;;;;4190754;34;20097;-73
2021/11/22 13:20:08;;;;;;;1.95;1.60;;;;;;;;;;4190833;34;20118;-73
2021/11/22 13:22:35;;;;;;;2.50;1.60;;;;;;;;;;4190912;34;20095;-73
2021/11/22 13:25:20;;;;;;;2.75;2.08;;;;;;;;;;4190652;34;20097;-73
2021/11/22 13:28:08;;;;;;;3.40;2.40;;;;;;;;;;4203716;34;20140;-74
2021/11/22 13:30:34;;;;;;;2.00;1.70;;;;;;;;;;4190928;34;20110;-74
2021/11/22 13:33:00;;;;;;;3.50;2.00;;;;;;;;;;4203309;34;20124;-74
2021/11/22 13:35:26;;;;;;;2.42;1.70;;;;;;;;;;4203782;34;20110;-73
2021/11/22 13:38:20;;;;;;;2.20;1.85;;;;;;;;;;4204685;34;20121;-73
2021/11/22 13:40:48;;;;;;;1.92;1.80;;;;;;;;;;4193103;34;20660;-73
2021/11/22 13:43:16;;;;;;;1.85;1.73;;;;;;;;;;4193556;34;20225;-74
2021/11/22 13:46:02;;;;;;;1.73;1.62;;;;;;;;;;4193174;34;20190;-72
2021/11/22 13:48:47;;;;;;;2.03;1.60;;;;;;;;;;4192994;34;20130;-73
2021/11/22 13:51:24;;;;;;;2.90;2.05;;;;;;;;;;4193134;34;20161;-74
2021/11/22 13:53:52;;;;;;;2.97;1.70;;;;;;;;;;4181602;34;20217;-73
2021/11/22 13:56:22;;;;;;;2.33;2.00;;;;;;;;;;4193179;34;20129;-74
2021/11/22 13:58:48;;;;;;;2.45;1.92;;;;;;;;;;4193005;34;20102;-71
2021/11/22 14:01:14;;;;;;;4.35;2.85;;;;;;;;;;4192802;34;20117;-71
2021/11/22 14:03:41;;;;;;;5.62;2.50;;;;;;;;;;4192563;34;20553;-71
2021/11/22 14:06:07;;;;;;;4.37;2.40;;;;;;;;;;4192936;34;20096;-72
2021/11/22 14:08:33;;;;;;;6.65;2.50;;;;;;;;;;4192752;34;20144;-73
2021/11/22 14:10:59;;;;;;;7.07;2.65;;;;;;;;;;4170020;34;20109;-73
2021/11/22 14:13:26;;;;;;;8.38;2.40;;;;;;;;;;4181719;34;20148;-70
2021/11/22 14:15:52;;;;;;;7.10;2.40;;;;;;;;;;4192677;34;20118;-73
2021/11/22 14:18:19;;;;;;;4.28;2.10;;;;;;;;;;4192718;34;20113;-73
2021/11/22 14:20:53;;;;;;;4.72;2.62;;;;;;;;;;4192564;34;20113;-72
2021/11/22 14:23:29;;;;;;;4.93;2.25;;;;;;;;;;4192514;34;20169;-72
2021/11/22 14:26:02;;;;;;;2.95;2.08;;;;;;;;;;4205689;34;20124;-73
2021/11/22 14:28:28;;;;;;;4.70;1.85;;;;;;;;;;4181293;34;20129;-72
2021/11/22 14:30:54;;;;;;;2.20;1.70;;;;;;;;;;4192592;34;20504;-72
2021/11/22 14:33:24;;;;;;;6.72;2.75;;;;;;;;;;4205656;34;20117;-72
2021/11/22 14:36:03;;;;;;;4.82;2.78;;;;;;;;;;4169610;34;20122;-73
2021/11/22 14:38:34;;;;;;;4.00;2.83;;;;;;;;;;4205502;34;20515;-72
2021/11/22 14:41:13;;;;;;;4.72;2.95;;;;;;;;;;4190356;34;20542;-71
2021/11/22 14:43:49;;;;;;;8.77;3.72;;;;;;;;;;4205663;34;20121;-73
2021/11/22 14:46:19;;;;;;;6.87;4.00;;;;;;;;;;4204868;34;20124;-73
2021/11/22 14:48:46;;;;;;;5.68;3.37;;;;;;;;;;4192413;34;20545;-72
2021/11/22 14:51:21;;;;;;;8.80;2.22;;;;;;;;;;4179625;34;20471;-73
2021/11/22 14:53:47;;;;;;;2.42;2.08;;;;;;;;;;4204359;34;20106;-75
2021/11/22 14:56:18;;;;;;;3.15;2.30;;;;;;;;;;4205063;34;20098;-66
2021/11/22 14:58:50;;;;;;;4.05;2.97;;;;;;;;;;4205161;34;20118;-67
2021/11/22 15:01:19;;;;;;;3.50;1.80;;;;;;;;;;4191796;34;20122;-69
2021/11/22 15:03:46;;;;;;;2.20;1.87;;;;;;;;;;4205232;34;20473;-68
2021/11/22 15:06:32;;;;;;;8.20;2.15;;;;;;;;;;4192063;34;20540;-67
2021/11/22 15:09:26;;;;;;;2.20;2.00;;;;;;;;;;4180668;34;20471;-72
2021/11/22 15:11:55;;;;;;;3.87;2.10;;;;;;;;;;4204895;34;20120;-70
2021/11/22 15:14:36;;;;;;;3.30;2.03;;;;;;;;;;4192646;34;20108;-71